createdAt,value
2023-04-11T00:01:55.196Z,52.10
2023-04-11T00:04:25.632Z,38.43
2023-04-11T00:06:52.931Z,32.93
2023-04-11T00:09:20.051Z,38.70
2023-04-11T00:11:48.175Z,33.17
2023-04-11T00:14:15.306Z,36.37
2023-04-11T00:16:42.613Z,30.40
2023-04-11T00:19:09.798Z,44.83
2023-04-11T00:21:40.514Z,36.73
2023-04-11T00:24:08.684Z,44.13
2023-04-11T00:26:35.911Z,35.13
2023-04-11T00:29:02.990Z,40.10
2023-04-11T00:31:30.009Z,31.70
2023-04-11T00:33:57.126Z,38.43
2023-04-11T00:36:24.344Z,33.97
2023-04-11T00:38:51.272Z,41.47
2023-04-11T00:41:19.091Z,36.47
2023-04-11T00:43:47.219Z,44.20
2023-04-11T00:46:17.167Z,36.57
2023-04-11T00:48:44.835Z,33.17
2023-04-11T00:51:11.911Z,41.17
2023-04-11T00:53:38.870Z,39.90
2023-04-11T00:56:06.907Z,40.10
2023-04-11T00:58:34.577Z,36.50
2023-04-11T01:01:02.073Z,36.83
2023-04-11T01:03:30.250Z,40.17
2023-04-11T01:05:57.590Z,41.57
2023-04-11T01:08:25.407Z,38.60
2023-04-11T01:10:52.791Z,38.50
2023-04-11T01:13:20.460Z,38.73
2023-04-11T01:15:47.518Z,31.80
2023-04-11T01:18:15.552Z,38.00
2023-04-11T01:20:42.760Z,34.97
2023-04-11T01:23:10.994Z,41.07
2023-04-11T01:25:37.966Z,36.40
2023-04-11T01:28:06.358Z,38.03
2023-04-11T01:30:33.376Z,35.87
2023-04-11T01:33:00.677Z,38.50
2023-04-11T01:35:27.746Z,33.07
2023-04-11T01:37:55.098Z,36.30
2023-04-11T01:40:24.048Z,41.63
2023-04-11T01:42:52.155Z,30.80
2023-04-11T01:45:20.968Z,40.60
2023-04-11T01:47:49.626Z,31.40
2023-04-11T01:50:17.914Z,38.73
2023-04-11T01:52:44.830Z,39.37
2023-04-11T01:55:11.891Z,33.50
2023-04-11T01:57:38.778Z,36.57
2023-04-11T02:00:08.898Z,27.50
2023-04-11T02:02:38.944Z,37.33
2023-04-11T02:05:06.445Z,39.17
2023-04-11T02:07:33.529Z,36.30
2023-04-11T02:10:00.716Z,35.77
2023-04-11T02:12:27.648Z,40.10
2023-04-11T02:14:54.579Z,45.10
2023-04-11T02:17:25.921Z,29.93
2023-04-11T02:19:53.221Z,37.17
2023-04-11T02:22:20.213Z,26.60
2023-04-11T02:24:47.674Z,34.13
2023-04-11T02:27:14.740Z,37.80
2023-04-11T02:29:41.748Z,27.97
2023-04-11T02:32:08.920Z,36.73
2023-04-11T02:34:35.981Z,32.97
2023-04-11T02:37:02.947Z,29.83
2023-04-11T02:39:30.036Z,25.83
2023-04-11T02:41:57.370Z,29.63
2023-04-11T02:44:26.301Z,29.23
2023-04-11T02:46:53.520Z,35.07
2023-04-11T02:49:20.524Z,33.47
2023-04-11T02:51:47.953Z,29.63
2023-04-11T02:54:15.001Z,35.40
2023-04-11T02:56:43.362Z,25.50
2023-04-11T02:59:12.410Z,39.27
2023-04-11T03:01:39.478Z,38.97
2023-04-11T03:04:07.317Z,25.03
2023-04-11T03:06:36.014Z,38.87
2023-04-11T03:09:04.004Z,37.40
2023-04-11T03:11:31.000Z,40.70
2023-04-11T03:13:57.984Z,35.67
2023-04-11T03:16:25.700Z,31.67
2023-04-11T03:18:52.849Z,33.77
2023-04-11T03:21:20.007Z,29.67
2023-04-11T03:23:47.044Z,34.03
2023-04-11T03:26:14.432Z,29.93
2023-04-11T03:28:41.444Z,24.23
2023-04-11T03:31:08.528Z,35.87
2023-04-11T03:33:35.592Z,32.93
2023-04-11T03:36:02.649Z,40.13
2023-04-11T03:38:29.904Z,31.80
2023-04-11T03:40:56.920Z,26.63
2023-04-11T03:43:23.970Z,34.60
2023-04-11T03:45:51.927Z,22.57
2023-04-11T03:48:20.327Z,29.03
2023-04-11T03:50:47.735Z,26.07
2023-04-11T03:53:14.787Z,23.13
2023-04-11T03:55:41.724Z,35.00
2023-04-11T03:58:08.665Z,32.43
2023-04-11T04:00:36.430Z,31.20
2023-04-11T04:03:04.006Z,34.07
2023-04-11T04:05:31.153Z,28.87
2023-04-11T04:07:58.171Z,23.27
2023-04-11T04:10:25.264Z,25.00
2023-04-11T04:12:53.528Z,25.50
2023-04-11T04:15:21.464Z,29.40
2023-04-11T04:17:49.594Z,24.73
2023-04-11T04:20:16.689Z,29.73
2023-04-11T04:22:47.515Z,28.67
2023-04-11T04:25:15.902Z,32.13
2023-04-11T04:27:44.479Z,31.83
2023-04-11T04:30:15.493Z,27.67
2023-04-11T04:32:46.163Z,36.50
2023-04-11T04:35:16.815Z,26.87
2023-04-11T04:37:46.614Z,27.63
2023-04-11T04:40:14.103Z,28.60
2023-04-11T04:42:42.179Z,31.63
2023-04-11T04:45:10.712Z,29.07
2023-04-11T04:47:38.508Z,25.27
2023-04-11T04:50:06.419Z,33.37
2023-04-11T04:52:33.389Z,35.40
2023-04-11T04:55:01.306Z,36.20
2023-04-11T04:57:29.603Z,24.63
2023-04-11T04:59:58.759Z,33.20
2023-04-11T05:02:26.978Z,27.97
2023-04-11T05:04:54.852Z,30.10
2023-04-11T05:07:21.868Z,24.57
2023-04-11T05:09:49.023Z,24.90
2023-04-11T05:12:18.052Z,27.33
2023-04-11T05:14:45.028Z,26.10
2023-04-11T05:17:12.049Z,25.27
2023-04-11T05:19:39.016Z,22.80
2023-04-11T05:22:06.011Z,23.80
2023-04-11T05:24:32.940Z,46.27
2023-04-11T05:27:00.639Z,38.40
2023-04-11T05:29:27.603Z,27.77
2023-04-11T05:31:54.508Z,24.93
2023-04-11T05:34:21.512Z,24.53
2023-04-11T05:36:48.464Z,28.83
2023-04-11T05:39:15.770Z,28.40
2023-04-11T05:41:43.300Z,33.73
2023-04-11T05:44:10.262Z,29.17
2023-04-11T05:46:38.419Z,27.33
2023-04-11T05:49:05.798Z,26.83
2023-04-11T05:51:32.809Z,26.73
2023-04-11T05:53:59.783Z,28.50
2023-04-11T05:56:26.730Z,21.73
2023-04-11T05:58:53.921Z,26.00
2023-04-11T06:01:20.933Z,22.70
2023-04-11T06:03:48.643Z,17.60
2023-04-11T06:06:15.868Z,27.93
2023-04-11T06:08:43.014Z,25.93
2023-04-11T06:11:11.387Z,20.33
2023-04-11T06:13:38.291Z,27.90
2023-04-11T06:16:06.831Z,21.47
2023-04-11T06:18:34.041Z,22.23
2023-04-11T06:21:01.183Z,21.87
2023-04-11T06:23:28.218Z,20.27
2023-04-11T06:25:55.643Z,19.90
2023-04-11T06:28:22.595Z,26.97
2023-04-11T06:30:52.210Z,20.17
2023-04-11T06:33:19.209Z,24.20
2023-04-11T06:35:46.300Z,26.67
2023-04-11T06:38:13.294Z,25.30
2023-04-11T06:40:40.386Z,32.13
2023-04-11T06:43:07.304Z,25.13
2023-04-11T06:45:34.333Z,21.53
2023-04-11T06:48:01.341Z,24.60
2023-04-11T06:50:28.275Z,22.30
2023-04-11T06:52:58.348Z,22.83
2023-04-11T06:55:25.862Z,22.83
2023-04-11T06:57:52.747Z,20.77
2023-04-11T07:00:21.075Z,26.20
2023-04-11T07:02:48.306Z,21.90
2023-04-11T07:05:17.541Z,23.60
2023-04-11T07:07:44.558Z,27.87
2023-04-11T07:10:11.613Z,21.10
2023-04-11T07:12:38.543Z,17.87
2023-04-11T07:15:08.595Z,22.77
2023-04-11T07:17:35.826Z,18.37
2023-04-11T07:20:06.637Z,18.97
2023-04-11T07:22:33.773Z,17.73
2023-04-11T07:25:00.726Z,23.60
2023-04-11T07:27:27.832Z,20.23
2023-04-11T07:29:54.752Z,22.57
2023-04-11T07:32:22.898Z,16.50
2023-04-11T07:34:49.910Z,16.70
2023-04-11T07:37:16.819Z,19.40
2023-04-11T07:39:44.713Z,26.43
2023-04-11T07:42:12.117Z,17.07
2023-04-11T07:44:39.050Z,17.07
2023-04-11T07:47:05.987Z,18.10
2023-04-11T07:49:33.990Z,19.27
2023-04-11T07:52:01.740Z,14.57
2023-04-11T07:54:30.353Z,22.43
2023-04-11T07:56:57.297Z,16.53
2023-04-11T07:59:24.191Z,11.47
2023-04-11T08:02:00.455Z,21.67
2023-04-11T08:04:33.579Z,16.83
2023-04-11T08:07:00.664Z,20.60
2023-04-11T08:09:27.797Z,14.93
2023-04-11T08:11:56.827Z,13.23
2023-04-11T08:14:24.121Z,14.47
2023-04-11T08:16:53.269Z,13.57
2023-04-11T08:19:21.172Z,23.20
2023-04-11T08:21:48.382Z,16.30
2023-04-11T08:24:15.301Z,13.27
2023-04-11T08:26:43.288Z,13.33
2023-04-11T08:29:12.861Z,15.13
2023-04-11T08:31:46.657Z,18.43
2023-04-11T08:34:13.833Z,18.63
2023-04-11T08:36:41.722Z,13.77
2023-04-11T08:39:09.028Z,24.27
2023-04-11T08:41:38.340Z,17.07
2023-04-11T08:44:05.723Z,17.37
2023-04-11T08:46:33.911Z,15.97
2023-04-11T08:49:01.416Z,11.88
2023-04-11T08:51:28.352Z,13.93
2023-04-11T08:54:00.534Z,21.47
2023-04-11T08:56:28.555Z,19.53
2023-04-11T08:58:55.607Z,17.97
2023-04-11T09:01:34.159Z,12.57
2023-04-11T09:04:05.052Z,14.73
2023-04-11T09:06:33.859Z,20.20
2023-04-11T09:09:06.555Z,21.23
2023-04-11T09:11:54.776Z,16.17
2023-04-11T09:14:26.784Z,21.73
2023-04-11T09:17:06.121Z,16.20
2023-04-11T09:19:35.066Z,12.77
2023-04-11T09:22:06.148Z,18.83
2023-04-11T09:24:35.405Z,22.70
2023-04-11T09:27:13.144Z,14.63
2023-04-11T09:29:48.150Z,12.43
2023-04-11T09:32:35.102Z,16.53
2023-04-11T09:35:15.812Z,13.37
2023-04-11T09:37:51.049Z,14.20
2023-04-11T09:40:22.722Z,15.30
2023-04-11T09:42:59.745Z,12.60
2023-04-11T09:45:28.616Z,15.83
2023-04-11T09:47:58.292Z,11.43
2023-04-11T09:50:27.337Z,13.57
2023-04-11T09:52:59.443Z,11.17
2023-04-11T09:55:27.036Z,13.33
2023-04-11T09:57:55.191Z,16.02
2023-04-11T10:00:30.186Z,10.27
2023-04-11T10:02:57.490Z,16.25
2023-04-11T10:05:30.494Z,18.40
2023-04-11T10:08:06.398Z,13.73
2023-04-11T10:10:34.136Z,15.67
2023-04-11T10:13:01.215Z,13.47
2023-04-11T10:15:29.067Z,17.35
2023-04-11T10:18:09.918Z,12.00
2023-04-11T10:20:40.439Z,11.00
2023-04-11T10:23:07.625Z,16.02
2023-04-11T10:25:50.567Z,11.85
2023-04-11T10:28:39.018Z,7.87
2023-04-11T10:31:14.058Z,14.23
2023-04-11T10:34:17.027Z,14.02
2023-04-11T10:37:08.334Z,8.30
2023-04-11T10:39:50.860Z,13.25
2023-04-11T10:42:31.737Z,15.55
2023-04-11T10:45:18.013Z,14.67
2023-04-11T10:48:08.121Z,18.40
2023-04-11T10:50:40.049Z,10.97
2023-04-11T10:53:14.303Z,13.57
2023-04-11T10:55:47.210Z,9.33
2023-04-11T10:58:19.722Z,13.53
2023-04-11T11:00:49.816Z,10.60
2023-04-11T11:03:28.121Z,17.48
2023-04-11T11:06:06.289Z,11.30
2023-04-11T11:08:41.919Z,10.80
2023-04-11T11:11:11.279Z,15.15
2023-04-11T11:13:42.070Z,10.40
2023-04-11T11:16:47.826Z,12.77
2023-04-11T11:19:14.938Z,11.48
2023-04-11T11:21:42.471Z,13.40
2023-04-11T11:24:09.627Z,13.20
2023-04-11T11:26:41.547Z,7.93
2023-04-11T11:29:10.449Z,12.68
2023-04-11T11:31:42.872Z,8.65
2023-04-11T11:36:45.280Z,12.98
2023-04-11T11:39:13.094Z,8.75
2023-04-11T11:41:41.423Z,12.60
2023-04-11T11:44:29.199Z,9.90
2023-04-11T11:47:12.701Z,14.20
2023-04-11T11:49:56.648Z,9.70
2023-04-11T11:52:40.959Z,8.77
2023-04-11T11:55:29.288Z,10.82
2023-04-11T11:58:02.112Z,16.02
2023-04-11T12:00:32.528Z,9.88
2023-04-11T12:03:02.931Z,9.95
2023-04-11T12:05:32.906Z,16.83
2023-04-11T12:08:06.418Z,8.35
2023-04-11T12:10:51.619Z,7.68
2023-04-11T12:13:25.417Z,12.05
2023-04-11T12:15:57.865Z,11.50
2023-04-11T12:18:27.440Z,13.10
2023-04-11T12:20:55.427Z,10.45
2023-04-11T12:23:23.038Z,8.85
2023-04-11T12:25:50.527Z,9.70
2023-04-11T12:28:17.488Z,11.48
2023-04-11T12:30:44.470Z,10.23
2023-04-11T12:33:11.383Z,6.13
2023-04-11T12:35:38.274Z,8.45
2023-04-11T12:38:07.833Z,6.35
2023-04-11T12:40:34.782Z,9.30
2023-04-11T12:43:01.670Z,12.13
2023-04-11T12:45:28.846Z,9.60
2023-04-11T12:47:55.858Z,11.18
2023-04-11T12:50:25.850Z,10.57
2023-04-11T12:52:53.180Z,8.07
2023-04-11T12:55:20.176Z,9.65
2023-04-11T12:57:47.116Z,5.55
2023-04-11T13:00:15.261Z,11.07
2023-04-11T13:02:44.989Z,9.13
2023-04-11T13:05:16.674Z,9.95
2023-04-11T13:07:46.288Z,13.23
2023-04-11T13:10:15.844Z,10.85
2023-04-11T13:12:45.036Z,12.07
2023-04-11T13:15:15.353Z,11.07
2023-04-11T13:17:43.114Z,8.57
2023-04-11T13:20:11.234Z,7.07
2023-04-11T13:22:42.302Z,12.02
2023-04-11T13:25:10.714Z,9.77
2023-04-11T13:27:39.750Z,7.90
2023-04-11T13:30:08.452Z,9.43
2023-04-11T13:32:35.696Z,9.60
2023-04-11T13:35:03.885Z,9.63
2023-04-11T13:37:30.824Z,11.32
2023-04-11T13:39:57.717Z,13.25
2023-04-11T13:42:24.705Z,9.82
2023-04-11T13:44:51.657Z,13.13
2023-04-11T13:47:18.610Z,12.48
2023-04-11T13:49:45.647Z,8.85
2023-04-11T13:52:12.556Z,12.90
2023-04-11T13:54:39.578Z,11.93
2023-04-11T13:57:09.472Z,11.00
2023-04-11T13:59:36.611Z,12.32
2023-04-11T14:02:03.626Z,9.23
2023-04-11T14:04:31.438Z,11.55
2023-04-11T14:06:58.496Z,7.35
2023-04-11T14:09:25.570Z,15.95
2023-04-11T14:11:52.600Z,7.75
2023-04-11T14:14:19.558Z,13.40
2023-04-11T14:16:46.546Z,7.68
2023-04-11T14:19:13.551Z,14.20
2023-04-11T14:21:40.616Z,8.57
2023-04-11T14:24:08.594Z,13.37
2023-04-11T14:26:35.617Z,10.35
2023-04-11T14:29:02.862Z,8.00
2023-04-11T14:31:30.378Z,9.90
2023-04-11T14:33:57.672Z,8.98
2023-04-11T14:36:24.820Z,11.30
2023-04-11T14:38:51.733Z,14.90
2023-04-11T14:41:19.398Z,8.73
2023-04-11T14:43:46.365Z,9.10
2023-04-11T14:46:13.362Z,9.13
2023-04-11T14:48:40.508Z,8.13
2023-04-11T14:51:07.843Z,4.73
2023-04-11T14:53:34.869Z,7.03
2023-04-11T14:56:06.498Z,6.78
2023-04-11T14:58:34.096Z,9.23
2023-04-11T15:01:01.164Z,13.38
2023-04-11T15:03:28.481Z,7.77
2023-04-11T15:05:55.664Z,7.43
2023-04-11T15:08:23.812Z,5.75
2023-04-11T15:10:54.366Z,8.38
2023-04-11T15:13:22.624Z,6.33
2023-04-11T15:15:49.719Z,7.80
2023-04-11T15:18:24.726Z,12.43
2023-04-11T15:20:52.647Z,6.20
2023-04-11T15:23:20.693Z,8.03
2023-04-11T15:25:54.330Z,7.47
2023-04-11T15:28:21.856Z,14.43
2023-04-11T15:30:51.812Z,9.47
2023-04-11T15:33:21.025Z,10.67
2023-04-11T15:35:48.219Z,10.23
2023-04-11T15:38:15.610Z,11.17
2023-04-11T15:40:43.006Z,13.00
2023-04-11T15:43:10.270Z,6.93
2023-04-11T15:45:39.731Z,7.23
2023-04-11T15:48:06.990Z,10.87
2023-04-11T15:50:36.570Z,10.73
2023-04-11T15:53:03.449Z,9.07
2023-04-11T15:55:30.724Z,9.47
2023-04-11T15:57:57.682Z,11.13
2023-04-11T16:00:27.203Z,15.50
2023-04-11T16:02:54.799Z,17.80
2023-04-11T16:05:22.106Z,11.87
2023-04-11T16:07:50.199Z,11.40
2023-04-11T16:10:17.470Z,11.40
2023-04-11T16:12:44.570Z,10.90
2023-04-11T16:15:11.721Z,11.67
2023-04-11T16:17:39.379Z,10.07
2023-04-11T16:20:09.711Z,15.67
2023-04-11T16:22:39.657Z,9.70
2023-04-11T16:25:07.564Z,10.47
2023-04-11T16:27:34.888Z,8.50
2023-04-11T16:30:05.593Z,11.23
2023-04-11T16:32:33.393Z,10.13
2023-04-11T16:35:00.944Z,11.87
2023-04-11T16:37:28.508Z,10.67
2023-04-11T16:39:56.551Z,10.27
2023-04-11T16:42:23.738Z,6.97
2023-04-11T16:44:50.974Z,8.50
2023-04-11T16:47:18.852Z,6.90
2023-04-11T16:49:47.048Z,11.03
2023-04-11T16:52:14.480Z,7.77
2023-04-11T16:54:41.525Z,8.90
2023-04-11T16:57:11.567Z,13.20
2023-04-11T16:59:39.040Z,10.80
2023-04-11T17:02:06.071Z,13.23
2023-04-11T17:04:33.400Z,14.23
2023-04-11T17:07:02.560Z,11.93
2023-04-11T17:09:30.285Z,10.60
2023-04-11T17:11:57.844Z,11.50
2023-04-11T17:14:25.062Z,18.83
2023-04-11T17:16:52.210Z,10.13
2023-04-11T17:19:19.223Z,14.53
2023-04-11T17:21:46.612Z,12.60
2023-04-11T17:24:13.600Z,12.30
2023-04-11T17:26:40.538Z,8.17
2023-04-11T17:29:08.316Z,10.07
2023-04-11T17:31:35.368Z,9.07
2023-04-11T17:34:02.411Z,12.93
2023-04-11T17:36:31.006Z,14.63
2023-04-11T17:38:58.086Z,11.93
2023-04-11T17:41:25.081Z,9.20
2023-04-11T17:43:56.784Z,13.80
2023-04-11T17:46:24.100Z,12.00
2023-04-11T17:48:51.124Z,6.97
2023-04-11T17:51:20.573Z,8.30
2023-04-11T17:53:49.934Z,7.57
2023-04-11T17:56:16.977Z,8.03
2023-04-11T17:58:45.321Z,5.30
2023-04-11T18:01:12.794Z,5.10
2023-04-11T18:03:41.216Z,6.70
2023-04-11T18:06:08.833Z,4.50
2023-04-11T18:08:50.626Z,5.83
2023-04-11T18:11:19.502Z,7.53
2023-04-11T18:13:49.887Z,7.33
2023-04-11T18:16:17.765Z,4.87
2023-04-11T18:18:46.179Z,10.97
2023-04-11T18:21:13.334Z,7.03
2023-04-11T18:23:40.612Z,6.23
2023-04-11T18:26:07.640Z,10.00
2023-04-11T18:28:34.699Z,7.03
2023-04-11T18:31:01.984Z,4.60
2023-04-11T18:33:29.270Z,9.17
2023-04-11T18:35:56.528Z,7.47
2023-04-11T18:38:23.698Z,6.87
2023-04-11T18:40:54.994Z,13.07
2023-04-11T18:43:23.883Z,8.43
2023-04-11T18:45:50.987Z,9.90
2023-04-11T18:48:18.041Z,9.93
2023-04-11T18:50:48.467Z,9.30
2023-04-11T18:53:15.852Z,7.30
2023-04-11T18:55:42.849Z,14.50
2023-04-11T18:58:11.209Z,12.73
2023-04-11T19:00:40.859Z,9.87
2023-04-11T19:03:15.618Z,8.83
2023-04-11T19:05:44.129Z,11.87
2023-04-11T19:08:11.569Z,10.73
2023-04-11T19:10:38.649Z,8.57
2023-04-11T19:13:06.576Z,11.57
2023-04-11T19:15:33.684Z,7.60
2023-04-11T19:18:01.853Z,9.20
2023-04-11T19:20:29.765Z,9.07
2023-04-11T19:22:57.086Z,7.07
2023-04-11T19:25:24.313Z,7.23
2023-04-11T19:27:51.597Z,10.50
2023-04-11T19:30:18.557Z,9.13
2023-04-11T19:32:47.588Z,6.23
2023-04-11T19:35:15.694Z,10.27
2023-04-11T19:37:42.772Z,4.87
2023-04-11T19:40:16.686Z,6.77
2023-04-11T19:42:45.320Z,9.87
2023-04-11T19:45:12.411Z,8.13
2023-04-11T19:47:41.119Z,4.40
2023-04-11T19:50:15.095Z,8.10
2023-04-11T19:52:43.412Z,11.37
2023-04-11T19:55:12.153Z,12.43
2023-04-11T19:57:40.186Z,6.87
2023-04-11T20:00:13.578Z,10.57
2023-04-11T20:02:46.769Z,10.67
2023-04-11T20:05:16.468Z,14.83
2023-04-11T20:07:44.382Z,13.40
2023-04-11T20:10:13.396Z,10.20
2023-04-11T20:12:41.347Z,13.03
2023-04-11T20:15:09.417Z,10.10
2023-04-11T20:17:36.427Z,11.87
2023-04-11T20:20:06.598Z,12.47
2023-04-11T20:22:33.610Z,12.23
2023-04-11T20:25:00.624Z,9.57
2023-04-11T20:27:28.289Z,9.37
2023-04-11T20:29:56.663Z,12.17
2023-04-11T20:32:23.757Z,4.80
2023-04-11T20:34:50.889Z,10.47
2023-04-11T20:37:19.368Z,11.37
2023-04-11T20:39:46.378Z,8.43
2023-04-11T20:42:13.758Z,8.57
2023-04-11T20:44:42.577Z,11.07
2023-04-11T20:47:09.634Z,15.50
2023-04-11T20:49:36.575Z,10.63
2023-04-11T20:52:03.726Z,11.13
2023-04-11T20:54:30.742Z,10.70
2023-04-11T20:56:57.835Z,9.50
2023-04-11T20:59:24.808Z,12.20
2023-04-11T21:01:53.681Z,10.60
2023-04-11T21:04:22.422Z,11.87
2023-04-11T21:06:50.211Z,10.33
2023-04-11T21:09:17.627Z,8.07
2023-04-11T21:11:44.714Z,9.30
2023-04-11T21:14:11.626Z,7.43
2023-04-11T21:16:38.795Z,16.70
2023-04-11T21:19:06.000Z,10.40
2023-04-11T21:21:33.499Z,8.43
2023-04-11T21:24:01.412Z,13.67
2023-04-11T21:26:28.370Z,14.47
2023-04-11T21:28:55.995Z,12.40
2023-04-11T21:31:22.978Z,8.23
2023-04-11T21:33:49.949Z,8.47
2023-04-11T21:36:16.870Z,6.73
2023-04-11T21:38:43.830Z,9.40
2023-04-11T21:41:11.070Z,7.03
2023-04-11T21:43:37.999Z,12.30
2023-04-11T21:46:05.337Z,5.60
2023-04-11T21:48:32.457Z,14.47
2023-04-11T21:50:59.431Z,8.60
2023-04-11T21:53:26.853Z,11.80
2023-04-11T21:55:53.774Z,8.27
2023-04-11T21:58:29.150Z,8.63
2023-04-11T22:00:57.039Z,11.03
2023-04-11T22:03:24.445Z,8.73
2023-04-11T22:05:52.394Z,8.17
2023-04-11T22:08:22.414Z,10.17
2023-04-11T22:10:50.695Z,10.63
2023-04-11T22:13:19.475Z,7.37
2023-04-11T22:16:05.283Z,7.63
2023-04-11T22:18:38.185Z,13.47
2023-04-11T22:21:09.174Z,11.20
2023-04-11T22:23:36.138Z,9.17
2023-04-11T22:26:03.153Z,10.13
2023-04-11T22:28:30.198Z,10.83
2023-04-11T22:30:57.828Z,10.60
2023-04-11T22:33:24.839Z,9.40
2023-04-11T22:35:53.589Z,7.87
2023-04-11T22:38:21.535Z,8.00
2023-04-11T22:40:48.467Z,9.23
2023-04-11T22:43:15.518Z,9.17
2023-04-11T22:45:43.041Z,13.80
2023-04-11T22:48:10.158Z,9.13
2023-04-11T22:50:37.368Z,7.47
2023-04-11T22:53:04.675Z,6.37
2023-04-11T22:55:35.628Z,8.77
2023-04-11T22:58:03.468Z,10.60
2023-04-11T23:00:31.483Z,9.40
2023-04-11T23:02:59.932Z,13.07
2023-04-11T23:05:27.049Z,7.17
2023-04-11T23:07:54.191Z,7.73
2023-04-11T23:10:21.369Z,7.80
2023-04-11T23:12:49.522Z,6.30
2023-04-11T23:15:17.383Z,7.90
2023-04-11T23:17:44.920Z,5.37
2023-04-11T23:20:13.804Z,6.37
2023-04-11T23:22:42.461Z,4.77
2023-04-11T23:25:10.979Z,10.13
2023-04-11T23:27:38.944Z,9.77
2023-04-11T23:30:07.508Z,5.30
2023-04-11T23:32:34.707Z,8.47
2023-04-11T23:35:03.071Z,5.60
2023-04-11T23:37:31.663Z,5.23
2023-04-11T23:39:59.633Z,6.97
2023-04-11T23:42:26.761Z,7.07
2023-04-11T23:44:53.831Z,7.63
2023-04-11T23:47:20.831Z,8.53
2023-04-11T23:49:47.817Z,8.67
2023-04-11T23:52:14.876Z,8.87
2023-04-11T23:54:41.793Z,8.47
2023-04-11T23:57:08.879Z,12.87
2023-04-11T23:59:36.225Z,5.93
